createdAt,value
2019-04-26T00:02:19.842Z,22.76
2019-04-26T00:04:45.871Z,22.75
2019-04-26T00:07:12.528Z,22.75
2019-04-26T00:09:37.882Z,22.75
2019-04-26T00:12:03.895Z,22.75
2019-04-26T00:14:29.891Z,22.75
2019-04-26T00:16:55.902Z,22.75
2019-04-26T00:19:22.275Z,22.75
2019-04-26T00:21:47.997Z,22.75
2019-04-26T00:24:15.171Z,22.75
2019-04-26T00:26:40.014Z,22.75
2019-04-26T00:29:06.009Z,22.74
2019-04-26T00:31:32.031Z,22.74
2019-04-26T00:33:58.046Z,22.74
2019-04-26T00:36:24.043Z,22.74
2019-04-26T00:38:50.061Z,22.74
2019-04-26T00:41:16.392Z,22.74
2019-04-26T00:43:42.073Z,22.74
2019-04-26T00:46:08.093Z,22.74
2019-04-26T00:48:34.093Z,22.74
2019-04-26T00:51:00.093Z,22.74
2019-04-26T00:53:26.149Z,22.74
2019-04-26T00:55:52.143Z,22.74
2019-04-26T00:58:18.637Z,22.73
2019-04-26T01:00:44.203Z,22.74
2019-04-26T01:03:10.224Z,22.74
2019-04-26T01:05:36.242Z,22.73
2019-04-26T01:08:02.237Z,22.74
2019-04-26T01:10:28.272Z,22.74
2019-04-26T01:12:54.267Z,22.73
2019-04-26T01:15:21.728Z,22.73
2019-04-26T01:17:46.278Z,22.73
2019-04-26T01:20:12.295Z,22.74
2019-04-26T01:22:38.291Z,22.73
2019-04-26T01:25:04.308Z,22.73
2019-04-26T01:27:30.303Z,22.73
2019-04-26T01:29:56.294Z,22.73
2019-04-26T01:32:22.313Z,22.73
2019-04-26T01:37:32.492Z,22.73
2019-04-26T01:39:58.484Z,22.73
2019-04-26T01:42:24.508Z,22.74
2019-04-26T01:44:50.508Z,22.74
2019-04-26T01:47:16.528Z,22.73
2019-04-26T01:49:42.554Z,22.74
2019-04-26T01:52:08.555Z,22.73
2019-04-26T01:54:34.577Z,22.73
2019-04-26T01:57:00.574Z,22.73
2019-04-26T01:59:27.418Z,22.73
2019-04-26T02:01:52.598Z,22.73
2019-04-26T02:04:18.595Z,22.73
2019-04-26T02:06:44.615Z,22.73
2019-04-26T02:09:10.668Z,22.73
2019-04-26T02:11:36.655Z,22.73
2019-04-26T02:14:02.673Z,22.73
2019-04-26T02:16:29.166Z,22.73
2019-04-26T02:18:54.695Z,22.72
2019-04-26T02:21:20.695Z,22.73
2019-04-26T02:23:46.704Z,22.72
2019-04-26T02:26:12.698Z,22.72
2019-04-26T02:28:38.694Z,22.72
2019-04-26T02:31:04.814Z,22.72
2019-04-26T02:33:31.771Z,22.73
2019-04-26T02:35:56.848Z,22.72
2019-04-26T02:38:22.870Z,22.72
2019-04-26T02:40:48.864Z,22.71
2019-04-26T02:43:14.891Z,22.72
2019-04-26T02:45:40.879Z,22.72
2019-04-26T02:48:06.883Z,22.71
2019-04-26T02:50:34.810Z,22.72
2019-04-26T02:52:58.899Z,22.72
2019-04-26T02:55:24.920Z,22.72
2019-04-26T02:57:50.923Z,22.72
2019-04-26T03:00:16.935Z,22.72
2019-04-26T03:02:42.942Z,22.72
2019-04-26T03:05:08.960Z,22.72
2019-04-26T03:07:35.847Z,22.72
2019-04-26T03:10:00.966Z,22.72
2019-04-26T03:12:26.977Z,22.71
2019-04-26T03:14:52.975Z,22.72
2019-04-26T03:17:18.970Z,22.71
2019-04-26T03:19:45.003Z,22.71
2019-04-26T03:22:10.993Z,22.71
2019-04-26T03:24:38.619Z,22.71
2019-04-26T03:27:03.027Z,22.71
2019-04-26T03:29:29.075Z,22.71
2019-04-26T03:31:55.627Z,22.72
2019-04-26T03:34:21.228Z,22.72
2019-04-26T03:36:47.120Z,22.71
2019-04-26T03:39:13.111Z,22.71
2019-04-26T03:41:41.062Z,22.71
2019-04-26T03:44:05.125Z,22.71
2019-04-26T03:46:31.146Z,22.71
2019-04-26T03:48:57.168Z,22.71
2019-04-26T03:51:23.158Z,22.70
2019-04-26T03:53:49.201Z,22.72
2019-04-26T03:56:15.193Z,22.71
2019-04-26T03:58:41.907Z,22.71
2019-04-26T04:01:07.213Z,22.71
2019-04-26T04:03:33.228Z,22.72
2019-04-26T04:05:59.264Z,22.71
2019-04-26T04:08:25.261Z,22.71
2019-04-26T04:10:51.278Z,22.70
2019-04-26T04:13:17.273Z,22.70
2019-04-26T04:15:44.886Z,22.71
2019-04-26T04:18:09.290Z,22.71
2019-04-26T04:20:35.350Z,22.71
2019-04-26T04:23:01.327Z,22.71
2019-04-26T04:25:27.321Z,22.71
2019-04-26T04:27:53.362Z,22.72
2019-04-26T04:30:19.400Z,22.72
2019-04-26T04:32:46.275Z,22.72
2019-04-26T04:35:11.465Z,22.72
2019-04-26T04:37:56.337Z,22.72
2019-04-26T04:40:03.526Z,22.73
2019-04-26T04:42:29.528Z,22.74
2019-04-26T04:44:55.511Z,22.73
2019-04-26T04:47:24.961Z,22.74
2019-04-26T04:49:48.941Z,22.74
2019-04-26T04:52:13.594Z,22.74
2019-04-26T04:54:39.589Z,22.74
2019-04-26T04:57:05.617Z,22.74
2019-04-26T04:59:31.605Z,22.74
2019-04-26T05:01:57.651Z,22.75
2019-04-26T05:04:23.672Z,22.75
2019-04-26T05:06:49.658Z,22.78
2019-04-26T05:09:16.175Z,22.77
2019-04-26T05:11:44.457Z,22.77
2019-04-26T05:14:10.281Z,22.77
2019-04-26T05:16:36.272Z,22.78
2019-04-26T05:19:02.321Z,22.78
2019-04-26T05:21:28.311Z,22.78
2019-04-26T05:23:55.188Z,22.79
2019-04-26T05:26:20.330Z,22.82
2019-04-26T05:28:47.346Z,22.81
2019-04-26T05:31:12.382Z,22.80
2019-04-26T05:33:38.373Z,22.80
2019-04-26T05:36:04.418Z,22.80
2019-04-26T05:38:30.424Z,22.79
2019-04-26T05:40:56.438Z,22.79
2019-04-26T05:43:22.877Z,22.80
2019-04-26T05:45:49.963Z,22.81
2019-04-26T05:48:14.911Z,22.80
2019-04-26T05:50:40.927Z,22.80
2019-04-26T05:53:06.928Z,22.81
2019-04-26T05:55:32.966Z,22.81
2019-04-26T05:57:58.967Z,22.81
2019-04-26T06:00:25.002Z,22.81
2019-04-26T06:02:51.322Z,22.81
2019-04-26T06:05:17.102Z,22.81
2019-04-26T06:07:43.123Z,22.82
2019-04-26T06:10:09.126Z,22.82
2019-04-26T06:12:35.223Z,22.82
2019-04-26T06:15:01.232Z,22.82
2019-04-26T06:17:27.243Z,22.81
2019-04-26T06:19:53.261Z,22.82
2019-04-26T06:22:19.254Z,22.82
2019-04-26T06:24:45.278Z,22.82
2019-04-26T06:27:14.288Z,22.83
2019-04-26T06:29:37.299Z,22.84
2019-04-26T06:32:03.299Z,22.83
2019-04-26T06:34:29.325Z,22.84
2019-04-26T06:36:56.099Z,22.83
2019-04-26T06:39:21.380Z,22.84
2019-04-26T06:41:48.858Z,22.83
2019-04-26T06:44:14.860Z,22.84
2019-04-26T06:46:40.987Z,22.84
2019-04-26T06:49:07.006Z,22.84
2019-04-26T06:51:33.039Z,22.84
2019-04-26T06:53:59.099Z,22.84
2019-04-26T06:56:25.173Z,22.83
2019-04-26T06:58:51.167Z,22.85
2019-04-26T07:01:17.166Z,22.85
2019-04-26T07:03:43.188Z,22.86
2019-04-26T07:06:09.194Z,22.87
2019-04-26T07:08:35.210Z,22.88
2019-04-26T07:11:01.276Z,22.88
2019-04-26T07:13:27.229Z,22.88
2019-04-26T07:15:53.250Z,22.88
2019-04-26T07:18:19.250Z,22.88
2019-04-26T07:20:45.268Z,22.88
2019-04-26T07:23:11.304Z,22.88
2019-04-26T07:25:37.310Z,22.89
2019-04-26T07:28:07.712Z,22.89
2019-04-26T07:30:29.515Z,22.90
2019-04-26T07:32:55.437Z,22.90
2019-04-26T07:35:21.431Z,22.90
2019-04-26T07:37:47.447Z,22.91
2019-04-26T07:40:13.467Z,22.92
2019-04-26T07:42:39.563Z,22.94
2019-04-26T07:45:05.680Z,22.95
2019-04-26T07:47:31.586Z,22.96
2019-04-26T07:49:57.593Z,22.97
2019-04-26T07:52:23.764Z,22.99
2019-04-26T07:54:49.802Z,23.00
2019-04-26T07:57:15.818Z,22.99
2019-04-26T07:59:41.834Z,23.00
2019-04-26T08:02:08.978Z,22.99
2019-04-26T08:04:33.866Z,23.00
2019-04-26T08:06:59.864Z,23.01
2019-04-26T08:09:27.479Z,23.00
2019-04-26T08:11:51.911Z,23.01
2019-04-26T08:14:17.926Z,23.01
2019-04-26T08:16:43.994Z,23.03
2019-04-26T08:19:10.602Z,23.03
2019-04-26T08:21:36.187Z,23.05
2019-04-26T08:24:02.193Z,23.05
2019-04-26T08:26:28.214Z,23.04
2019-04-26T08:28:56.648Z,23.04
2019-04-26T08:31:23.157Z,23.04
2019-04-26T08:33:48.760Z,23.05
2019-04-26T08:36:12.781Z,23.06
2019-04-26T08:38:38.774Z,23.09
2019-04-26T08:41:05.230Z,23.11
2019-04-26T08:43:31.815Z,23.13
2019-04-26T08:46:03.149Z,23.15
2019-04-26T08:48:27.720Z,23.16
2019-04-26T08:50:49.073Z,23.16
2019-04-26T08:53:15.067Z,23.16
2019-04-26T08:55:41.093Z,23.17
2019-04-26T08:58:07.104Z,23.17
2019-04-26T09:00:33.099Z,23.17
2019-04-26T09:03:10.769Z,23.18
2019-04-26T09:05:25.227Z,23.18
2019-04-26T09:07:53.478Z,23.20
2019-04-26T09:10:17.266Z,23.20
2019-04-26T09:12:43.289Z,23.21
2019-04-26T09:15:09.281Z,23.22
2019-04-26T09:17:35.291Z,23.22
2019-04-26T09:20:07.136Z,23.23
2019-04-26T09:22:27.761Z,23.23
2019-04-26T09:24:55.156Z,23.24
2019-04-26T09:27:21.121Z,23.22
2019-04-26T09:29:45.522Z,23.24
2019-04-26T09:32:11.521Z,23.25
2019-04-26T09:34:41.313Z,23.24
2019-04-26T09:37:04.673Z,23.24
2019-04-26T09:39:30.713Z,23.24
2019-04-26T09:41:56.725Z,23.24
2019-04-26T09:44:22.725Z,23.24
2019-04-26T09:46:52.744Z,23.24
2019-04-26T09:49:14.911Z,23.25
2019-04-26T09:51:41.032Z,23.24
2019-04-26T09:54:07.045Z,23.25
2019-04-26T09:56:33.168Z,23.25
2019-04-26T09:59:01.531Z,23.26
2019-04-26T10:01:26.044Z,23.26
2019-04-26T10:03:51.850Z,23.25
2019-04-26T10:06:17.867Z,23.25
2019-04-26T10:08:47.072Z,23.24
2019-04-26T10:11:10.874Z,23.24
2019-04-26T10:13:35.912Z,23.22
2019-04-26T10:16:02.673Z,23.28
2019-04-26T10:18:27.937Z,23.30
2019-04-26T10:20:53.970Z,23.32
2019-04-26T10:23:19.980Z,23.32
2019-04-26T10:25:47.312Z,23.31
2019-04-26T10:28:15.871Z,23.32
2019-04-26T10:30:38.291Z,23.32
2019-04-26T10:33:04.039Z,23.32
2019-04-26T10:35:30.078Z,23.31
2019-04-26T10:37:56.094Z,23.31
2019-04-26T10:40:22.104Z,23.30
2019-04-26T10:42:48.103Z,23.31
2019-04-26T10:45:14.834Z,23.33
2019-04-26T10:47:40.178Z,23.33
2019-04-26T10:50:06.195Z,23.33
2019-04-26T10:52:32.187Z,23.32
2019-04-26T10:57:39.326Z,23.32
2019-04-26T11:00:05.347Z,23.31
2019-04-26T11:02:31.349Z,23.31
2019-04-26T11:04:57.371Z,23.31
2019-04-26T11:07:23.387Z,23.30
2019-04-26T11:09:49.382Z,23.29
2019-04-26T11:12:15.406Z,23.29
2019-04-26T11:14:41.399Z,23.28
2019-04-26T11:17:07.403Z,23.29
2019-04-26T11:19:35.517Z,23.29
2019-04-26T11:21:59.422Z,23.28
2019-04-26T11:24:25.433Z,23.27
2019-04-26T11:26:51.512Z,23.27
2019-04-26T11:29:17.604Z,23.26
2019-04-26T11:31:43.633Z,23.27
2019-04-26T11:34:09.654Z,23.27
2019-04-26T11:36:37.628Z,23.27
2019-04-26T11:39:05.579Z,23.26
2019-04-26T11:41:27.718Z,23.26
2019-04-26T11:43:54.528Z,23.25
2019-04-26T11:46:21.791Z,23.25
2019-04-26T11:48:45.748Z,23.25
2019-04-26T11:51:11.759Z,23.25
2019-04-26T11:53:40.518Z,23.25
2019-04-26T11:56:04.614Z,23.25
2019-04-26T11:58:29.787Z,23.24
2019-04-26T12:00:55.792Z,23.23
2019-04-26T12:03:24.807Z,23.22
2019-04-26T12:05:47.808Z,23.23
2019-04-26T12:08:13.832Z,23.23
2019-04-26T12:10:40.572Z,23.22
2019-04-26T12:13:06.303Z,23.22
2019-04-26T12:15:31.864Z,23.22
2019-04-26T12:17:58.686Z,23.21
2019-04-26T12:20:26.940Z,23.20
2019-04-26T12:22:49.907Z,23.21
2019-04-26T12:25:15.900Z,23.20
2019-04-26T12:27:42.007Z,23.20
2019-04-26T12:30:07.927Z,23.20
2019-04-26T12:32:34.040Z,23.21
2019-04-26T12:35:00.050Z,23.21
2019-04-26T12:37:26.062Z,23.21
2019-04-26T12:39:52.106Z,23.21
2019-04-26T12:42:18.102Z,23.20
2019-04-26T12:44:44.128Z,23.21
2019-04-26T12:47:10.135Z,23.20
2019-04-26T12:49:36.212Z,23.20
2019-04-26T12:52:02.203Z,23.19
2019-04-26T12:54:28.206Z,23.19
2019-04-26T12:56:54.232Z,23.19
2019-04-26T12:59:22.530Z,23.19
2019-04-26T13:01:47.587Z,23.19
2019-04-26T13:04:12.326Z,23.19
2019-04-26T13:06:38.316Z,23.19
2019-04-26T13:09:04.328Z,23.19
2019-04-26T13:11:30.330Z,23.20
2019-04-26T13:13:56.382Z,23.22
2019-04-26T13:16:26.284Z,23.22
2019-04-26T13:18:48.389Z,23.23
2019-04-26T13:21:14.437Z,23.22
2019-04-26T13:23:40.431Z,23.24
2019-04-26T13:26:06.479Z,23.25
2019-04-26T13:28:32.466Z,23.25
2019-04-26T13:30:58.482Z,23.26
2019-04-26T13:33:27.398Z,23.29
2019-04-26T13:36:02.331Z,23.28
2019-04-26T13:38:16.641Z,23.30
2019-04-26T13:40:42.643Z,23.31
2019-04-26T13:43:08.690Z,23.32
2019-04-26T13:45:34.727Z,23.33
2019-04-26T13:48:00.722Z,23.33
2019-04-26T13:50:28.257Z,23.33
2019-04-26T13:52:52.797Z,23.33
2019-04-26T13:55:18.803Z,23.33
2019-04-26T13:57:46.110Z,23.34
2019-04-26T14:00:11.691Z,23.35
2019-04-26T14:02:36.834Z,23.36
2019-04-26T14:05:02.831Z,23.36
2019-04-26T14:07:28.866Z,23.37
2019-04-26T14:09:54.870Z,23.36
2019-04-26T14:12:20.864Z,23.36
2019-04-26T14:14:46.909Z,23.37
2019-04-26T14:17:12.925Z,23.36
2019-04-26T14:19:38.987Z,23.35
2019-04-26T14:22:07.174Z,23.36
2019-04-26T14:24:31.014Z,23.36
2019-04-26T14:26:57.028Z,23.35
2019-04-26T14:29:23.037Z,23.36
2019-04-26T14:31:51.483Z,23.37
2019-04-26T14:34:15.089Z,23.37
2019-04-26T14:36:43.621Z,23.36
2019-04-26T14:39:10.507Z,23.37
2019-04-26T14:41:33.700Z,23.37
2019-04-26T14:43:59.318Z,23.37
2019-04-26T14:46:25.603Z,23.37
2019-04-26T14:49:01.430Z,23.37
2019-04-26T14:51:18.674Z,23.37
2019-04-26T14:53:43.660Z,23.37
2019-04-26T14:56:09.668Z,23.38
2019-04-26T14:58:35.874Z,23.37
2019-04-26T15:01:03.179Z,23.38
2019-04-26T15:03:27.884Z,23.34
2019-04-26T15:05:54.097Z,23.39
2019-04-26T15:08:19.904Z,23.40
2019-04-26T15:10:48.796Z,23.41
2019-04-26T15:13:20.083Z,23.42
2019-04-26T15:15:37.919Z,23.42
2019-04-26T15:18:03.940Z,23.43
2019-04-26T15:20:29.935Z,23.44
2019-04-26T15:22:55.965Z,23.44
2019-04-26T15:25:22.002Z,23.44
2019-04-26T15:27:48.037Z,23.44
2019-04-26T15:30:14.033Z,23.44
2019-04-26T15:32:40.087Z,23.44
2019-04-26T15:35:06.097Z,23.46
2019-04-26T15:37:32.206Z,23.47
2019-04-26T15:39:58.392Z,23.47
2019-04-26T15:42:29.250Z,23.47
2019-04-26T15:44:50.135Z,23.46
2019-04-26T15:47:16.127Z,23.47
2019-04-26T15:49:42.920Z,23.46
2019-04-26T15:52:08.149Z,23.47
2019-04-26T15:54:34.147Z,23.46
2019-04-26T15:57:01.978Z,23.46
2019-04-26T15:59:26.177Z,23.46
2019-04-26T16:01:52.266Z,23.45
2019-04-26T16:04:18.447Z,23.46
2019-04-26T16:06:45.055Z,23.44
2019-04-26T16:09:13.846Z,23.44
2019-04-26T16:11:36.470Z,23.44
2019-04-26T16:14:02.486Z,23.43
2019-04-26T16:16:30.226Z,23.43
2019-04-26T16:18:57.168Z,23.44
2019-04-26T16:21:22.065Z,23.44
2019-04-26T16:23:50.999Z,23.44
2019-04-26T16:26:15.354Z,23.44
2019-04-26T16:28:44.405Z,23.44
2019-04-26T16:31:06.654Z,23.43
2019-04-26T16:33:33.504Z,23.43
2019-04-26T16:35:57.513Z,23.43
2019-04-26T16:38:23.023Z,23.43
2019-04-26T16:40:51.989Z,23.42
2019-04-26T16:43:14.959Z,23.43
2019-04-26T16:45:41.240Z,23.42
2019-04-26T16:48:06.961Z,23.43
2019-04-26T16:50:37.201Z,23.43
2019-04-26T16:52:59.014Z,23.42
2019-04-26T16:55:25.037Z,23.42
2019-04-26T16:57:55.725Z,23.42
2019-04-26T17:00:17.275Z,23.41
2019-04-26T17:02:44.022Z,23.40
2019-04-26T17:05:17.629Z,23.40
2019-04-26T17:07:39.305Z,23.40
2019-04-26T17:10:03.060Z,23.40
2019-04-26T17:12:27.282Z,23.39
2019-04-26T17:14:53.272Z,23.40
2019-04-26T17:17:19.291Z,23.40
2019-04-26T17:19:45.304Z,23.40
2019-04-26T17:22:14.108Z,23.41
2019-04-26T17:24:38.143Z,23.41
2019-04-26T17:27:05.330Z,23.41
2019-04-26T17:29:29.462Z,23.42
2019-04-26T17:31:55.454Z,23.43
2019-04-26T17:34:22.575Z,23.43
2019-04-26T17:36:50.383Z,23.42
2019-04-26T17:39:17.061Z,23.41
2019-04-26T17:41:43.257Z,23.40
2019-04-26T17:44:10.755Z,23.40
2019-04-26T17:46:32.678Z,23.41
2019-04-26T17:48:57.567Z,23.40
2019-04-26T17:51:23.589Z,23.39
2019-04-26T17:53:58.823Z,23.39
2019-04-26T17:56:15.645Z,23.41
2019-04-26T17:58:51.561Z,23.42
2019-04-26T18:01:07.619Z,23.43
2019-04-26T18:03:33.722Z,23.44
2019-04-26T18:06:01.030Z,23.44
2019-04-26T18:08:40.820Z,23.43
2019-04-26T18:10:51.694Z,23.43
2019-04-26T18:13:17.769Z,23.43
2019-04-26T18:15:46.987Z,23.43
2019-04-26T18:18:13.810Z,23.43
2019-04-26T18:20:37.398Z,23.43
2019-04-26T18:23:03.426Z,23.43
2019-04-26T18:25:27.909Z,23.42
2019-04-26T18:27:53.899Z,23.43
2019-04-26T18:30:19.940Z,23.43
2019-04-26T18:32:47.660Z,23.44
2019-04-26T18:35:13.532Z,23.45
2019-04-26T18:37:39.493Z,23.45
2019-04-26T18:40:04.741Z,23.46
2019-04-26T18:42:30.266Z,23.49
2019-04-26T18:44:56.282Z,23.52
2019-04-26T18:47:26.259Z,23.52
2019-04-26T18:49:52.030Z,23.53
2019-04-26T18:52:14.320Z,23.53
2019-04-26T18:54:40.368Z,23.54
2019-04-26T18:57:09.488Z,23.53
2019-04-26T18:59:34.029Z,23.54
2019-04-26T19:01:58.352Z,23.52
2019-04-26T19:04:24.402Z,23.51
2019-04-26T19:06:50.419Z,23.54
2019-04-26T19:09:16.470Z,23.55
2019-04-26T19:11:48.488Z,23.54
2019-04-26T19:14:11.383Z,23.54
2019-04-26T19:16:34.519Z,23.54
2019-04-26T19:19:00.527Z,23.56
2019-04-26T19:21:26.601Z,23.57
2019-04-26T19:24:04.940Z,23.57
2019-04-26T19:26:31.760Z,23.57
2019-04-26T19:28:44.782Z,23.62
2019-04-26T19:31:12.676Z,23.59
2019-04-26T19:33:36.821Z,23.60
2019-04-26T19:36:02.875Z,23.59
2019-04-26T19:38:28.901Z,23.58
2019-04-26T19:40:54.904Z,23.57
2019-04-26T19:43:30.197Z,23.57
2019-04-26T19:45:47.240Z,23.58
2019-04-26T19:48:18.894Z,23.61
2019-04-26T19:50:42.024Z,23.60
2019-04-26T19:53:05.072Z,23.60
2019-04-26T19:55:31.918Z,23.60
2019-04-26T19:57:57.153Z,23.61
2019-04-26T20:00:23.179Z,23.60
2019-04-26T20:02:49.198Z,23.60
2019-04-26T20:05:17.287Z,23.59
2019-04-26T20:07:41.626Z,23.60
2019-04-26T20:10:07.405Z,23.59
2019-04-26T20:12:37.870Z,23.59
2019-04-26T20:14:59.450Z,23.59
2019-04-26T20:17:25.662Z,23.60
2019-04-26T20:19:52.837Z,23.59
2019-04-26T20:22:22.127Z,23.59
2019-04-26T20:24:43.797Z,23.59
2019-04-26T20:27:15.585Z,23.60
2019-04-26T20:29:36.055Z,23.60
2019-04-26T20:32:02.278Z,23.60
2019-04-26T20:34:28.121Z,23.60
2019-04-26T20:36:54.140Z,23.60
2019-04-26T20:39:20.974Z,23.60
2019-04-26T20:41:46.155Z,23.59
2019-04-26T20:44:12.773Z,23.60
2019-04-26T20:46:38.188Z,23.59
2019-04-26T20:49:07.897Z,23.59
2019-04-26T20:51:30.227Z,23.58
2019-04-26T20:53:56.241Z,23.58
2019-04-26T20:56:22.603Z,23.57
2019-04-26T20:58:48.413Z,23.58
2019-04-26T21:01:14.529Z,23.57
2019-04-26T21:03:42.828Z,23.57
2019-04-26T21:06:06.567Z,23.57
2019-04-26T21:08:32.571Z,23.55
2019-04-26T21:11:00.216Z,23.57
2019-04-26T21:13:30.874Z,23.57
2019-04-26T21:15:57.757Z,23.54
2019-04-26T21:18:16.631Z,23.55
2019-04-26T21:20:42.708Z,23.55
2019-04-26T21:23:08.720Z,23.55
2019-04-26T21:25:35.610Z,23.53
2019-04-26T21:28:02.502Z,23.53
2019-04-26T21:30:29.513Z,23.52
2019-04-26T21:32:56.010Z,23.52
2019-04-26T21:35:20.453Z,23.51
2019-04-26T21:37:44.802Z,23.51
2019-04-26T21:40:10.790Z,23.50
2019-04-26T21:42:36.810Z,23.50
2019-04-26T21:45:03.508Z,23.50
2019-04-26T21:47:31.989Z,23.49
2019-04-26T21:49:58.939Z,23.49
2019-04-26T21:52:21.362Z,23.48
2019-04-26T21:54:48.395Z,23.47
2019-04-26T21:57:12.878Z,23.47
2019-04-26T21:59:42.022Z,23.47
2019-04-26T22:02:04.904Z,23.46
2019-04-26T22:04:34.201Z,23.46
2019-04-26T22:06:59.831Z,23.45
2019-04-26T22:09:23.805Z,23.45
2019-04-26T22:11:49.449Z,23.44
2019-04-26T22:14:20.087Z,23.44
2019-04-26T22:16:41.052Z,23.44
2019-04-26T22:19:07.061Z,23.43
2019-04-26T22:21:33.988Z,23.44
2019-04-26T22:23:59.079Z,23.43
2019-04-26T22:26:25.094Z,23.43
2019-04-26T22:28:51.083Z,23.42
2019-04-26T22:31:17.153Z,23.42
2019-04-26T22:33:44.529Z,23.42
2019-04-26T22:36:09.163Z,23.42
2019-04-26T22:38:35.177Z,23.41
2019-04-26T22:41:02.939Z,23.41
2019-04-26T22:43:27.198Z,23.41
2019-04-26T22:45:53.935Z,23.40
2019-04-26T22:48:23.231Z,23.40
2019-04-26T22:50:45.212Z,23.40
2019-04-26T22:53:12.007Z,23.40
2019-04-26T22:55:37.254Z,23.39
2019-04-26T22:58:03.337Z,23.39
2019-04-26T23:00:29.694Z,23.39
2019-04-26T23:02:58.071Z,23.39
2019-04-26T23:05:23.031Z,23.38
2019-04-26T23:07:47.376Z,23.39
2019-04-26T23:10:15.229Z,23.39
2019-04-26T23:12:39.411Z,23.38
2019-04-26T23:15:05.411Z,23.38
2019-04-26T23:17:34.410Z,23.38
2019-04-26T23:19:57.552Z,23.37
2019-04-26T23:22:26.323Z,23.38
2019-04-26T23:24:54.541Z,23.37
2019-04-26T23:27:20.417Z,23.37
2019-04-26T23:29:41.487Z,23.37
2019-04-26T23:32:07.510Z,23.37
2019-04-26T23:34:33.752Z,23.37
2019-04-26T23:36:59.511Z,23.36
2019-04-26T23:39:25.509Z,23.36
2019-04-26T23:41:51.532Z,23.37
2019-04-26T23:44:17.551Z,23.36
2019-04-26T23:46:43.560Z,23.36
2019-04-26T23:49:09.573Z,23.36
2019-04-26T23:51:38.205Z,23.36
2019-04-26T23:54:03.209Z,23.35
2019-04-26T23:56:27.607Z,23.36
2019-04-26T23:58:53.610Z,23.35
